Tsetserleg, Mongolia
Current Conditions -  °F | °C
As of 6:00 PM on Friday 24 Oct 2014 (Local Time) from ZMUB Reporting Station
Broken Clouds Broken Clouds  
Wind Chill: 41°   Ceiling: 10000
Heat Index: 45°   Visibility: 6mi
Dew Point: 21°   Wind: 7mph
Humidity: 39%   Direction: 160°SSE
Pressure: 29.74"   Gusts: NA
Location:  47.46°N, 101.46°E
Report Text: ZMUB 241000Z 16003MPS 9999 FEW033 BKN100 07/M06 Q1007 NOSIG RMK QFE649.2 37 MOP
Loading
Personal Weather Stations






























Interactive Weather Map
Tropical Storm Tracking
New forecast layout! Learn more

10-Day Weather Forecast

Advertisements
Track Severe Weather on mobile